sensor_id;sensor_type;location;lat;lon;timestamp;pressure;altitude;pressure_sealevel;temperature;humidity
13124;BME280;6627;50.920;12.050;2023-02-20T00:00:39;99440.84;;;13.72;57.45
13124;BME280;6627;50.920;12.050;2023-02-20T00:03:07;99496.97;;;14.59;55.54
13124;BME280;6627;50.920;12.050;2023-02-20T00:05:34;99498.28;;;14.84;54.89
13124;BME280;6627;50.920;12.050;2023-02-20T00:08:02;99451.16;;;14.48;55.06
13124;BME280;6627;50.920;12.050;2023-02-20T00:10:29;99486.81;;;14.74;55.12
13124;BME280;6627;50.920;12.050;2023-02-20T00:12:56;99526.44;;;14.94;54.82
13124;BME280;6627;50.920;12.050;2023-02-20T00:15:25;99485.13;;;14.86;54.06
13124;BME280;6627;50.920;12.050;2023-02-20T00:17:53;99294.16;;;13.07;56.63
13124;BME280;6627;50.920;12.050;2023-02-20T00:20:23;99362.06;;;13.40;56.91
13124;BME280;6627;50.920;12.050;2023-02-20T00:22:52;99402.34;;;13.65;56.67
13124;BME280;6627;50.920;12.050;2023-02-20T00:25:21;99363.25;;;13.47;57.01
13124;BME280;6627;50.920;12.050;2023-02-20T00:27:49;99375.72;;;13.62;56.59
13124;BME280;6627;50.920;12.050;2023-02-20T00:30:19;99407.81;;;14.01;56.01
13124;BME280;6627;50.920;12.050;2023-02-20T00:32:50;99270.78;;;12.65;57.83
13124;BME280;6627;50.920;12.050;2023-02-20T00:35:19;99320.94;;;12.72;58.81
13124;BME280;6627;50.920;12.050;2023-02-20T00:37:47;99433.66;;;13.76;57.63
13124;BME280;6627;50.920;12.050;2023-02-20T00:40:18;99423.84;;;14.03;56.13
13124;BME280;6627;50.920;12.050;2023-02-20T00:42:45;99354.75;;;13.62;55.96
13124;BME280;6627;50.920;12.050;2023-02-20T00:45:14;99467.81;;;14.46;55.78
13124;BME280;6627;50.920;12.050;2023-02-20T00:47:42;99371.53;;;13.92;55.51
13124;BME280;6627;50.920;12.050;2023-02-20T00:50:12;99370.53;;;13.38;57.50
13124;BME280;6627;50.920;12.050;2023-02-20T00:52:41;99423.84;;;14.03;56.42
13124;BME280;6627;50.920;12.050;2023-02-20T00:55:08;99428.59;;;14.33;55.58
13124;BME280;6627;50.920;12.050;2023-02-20T00:57:35;99445.91;;;14.51;55.27
13124;BME280;6627;50.920;12.050;2023-02-20T01:00:05;99437.78;;;14.60;54.66
13124;BME280;6627;50.920;12.050;2023-02-20T01:02:33;99382.47;;;13.78;56.37
13124;BME280;6627;50.920;12.050;2023-02-20T01:05:00;99404.16;;;14.06;56.04
13124;BME280;6627;50.920;12.050;2023-02-20T01:07:27;99442.91;;;14.39;55.71
13124;BME280;6627;50.920;12.050;2023-02-20T01:09:56;99455.88;;;14.56;55.49
13124;BME280;6627;50.920;12.050;2023-02-20T01:12:23;99388.34;;;14.30;55.04
13124;BME280;6627;50.920;12.050;2023-02-20T01:14:50;99363.56;;;13.96;55.74
13124;BME280;6627;50.920;12.050;2023-02-20T01:17:17;99417.91;;;14.01;56.32
13124;BME280;6627;50.920;12.050;2023-02-20T01:19:44;99399.69;;;13.87;56.78
13124;BME280;6627;50.920;12.050;2023-02-20T01:22:13;99423.66;;;14.35;55.97
13124;BME280;6627;50.920;12.050;2023-02-20T01:24:40;99393.03;;;14.16;55.87
13124;BME280;6627;50.920;12.050;2023-02-20T01:27:10;99363.41;;;13.78;56.74
13124;BME280;6627;50.920;12.050;2023-02-20T01:29:38;99285.69;;;12.95;58.04
13124;BME280;6627;50.920;12.050;2023-02-20T01:32:06;99312.16;;;12.61;60.29
13124;BME280;6627;50.920;12.050;2023-02-20T01:34:33;99436.41;;;13.90;58.59
13124;BME280;6627;50.920;12.050;2023-02-20T01:37:00;99395.28;;;13.64;58.81
13124;BME280;6627;50.920;12.050;2023-02-20T01:39:28;99356.19;;;13.32;59.38
13124;BME280;6627;50.920;12.050;2023-02-20T01:42:00;99421.03;;;14.08;58.17
13124;BME280;6627;50.920;12.050;2023-02-20T01:44:31;99260.44;;;12.53;59.63
13124;BME280;6627;50.920;12.050;2023-02-20T01:46:59;99276.44;;;12.54;60.22
13124;BME280;6627;50.920;12.050;2023-02-20T01:49:32;99354.56;;;13.18;59.96
13124;BME280;6627;50.920;12.050;2023-02-20T01:52:07;99377.34;;;13.63;58.42
13124;BME280;6627;50.920;12.050;2023-02-20T01:54:37;99337.69;;;13.34;58.66
13124;BME280;6627;50.920;12.050;2023-02-20T01:57:12;99352.00;;;13.26;59.22
13124;BME280;6627;50.920;12.050;2023-02-20T01:59:42;99422.00;;;14.12;58.37
13124;BME280;6627;50.920;12.050;2023-02-20T02:02:12;99383.81;;;13.40;59.22
13124;BME280;6627;50.920;12.050;2023-02-20T02:04:42;99365.44;;;13.59;58.42
13124;BME280;6627;50.920;12.050;2023-02-20T02:07:10;99392.44;;;13.83;58.35
13124;BME280;6627;50.920;12.050;2023-02-20T02:09:46;99341.88;;;13.54;58.23
13124;BME280;6627;50.920;12.050;2023-02-20T02:12:14;99436.63;;;14.16;58.88
13124;BME280;6627;50.920;12.050;2023-02-20T02:14:43;99382.47;;;13.78;58.41
13124;BME280;6627;50.920;12.050;2023-02-20T02:17:35;99416.44;;;14.53;57.06
13124;BME280;6627;50.920;12.050;2023-02-20T02:20:59;99285.50;;;13.69;56.76
13124;BME280;6627;50.920;12.050;2023-02-20T02:31:11;99361.03;;;13.85;58.45
13124;BME280;6627;50.920;12.050;2023-02-20T02:37:32;99270.19;;;12.68;60.42
13124;BME280;6627;50.920;12.050;2023-02-20T02:40:08;99354.38;;;13.55;60.01
13124;BME280;6627;50.920;12.050;2023-02-20T02:42:46;99251.44;;;12.38;61.60
13124;BME280;6627;50.920;12.050;2023-02-20T02:45:22;99307.88;;;13.02;60.94
13124;BME280;6627;50.920;12.050;2023-02-20T02:47:59;99371.50;;;13.56;60.35
13124;BME280;6627;50.920;12.050;2023-02-20T02:50:33;99292.47;;;12.97;60.36
13124;BME280;6627;50.920;12.050;2023-02-20T02:53:06;99358.03;;;13.51;60.39
13124;BME280;6627;50.920;12.050;2023-02-20T02:55:34;99416.09;;;14.32;58.84
13124;BME280;6627;50.920;12.050;2023-02-20T02:58:04;99415.22;;;14.46;57.87
13124;BME280;6627;50.920;12.050;2023-02-20T03:00:37;99406.19;;;14.36;57.97
13124;BME280;6627;50.920;12.050;2023-02-20T03:03:12;99302.69;;;13.14;59.88
13124;BME280;6627;50.920;12.050;2023-02-20T03:05:52;99264.84;;;12.49;61.58
13124;BME280;6627;50.920;12.050;2023-02-20T03:08:29;99330.22;;;12.99;61.66
13124;BME280;6627;50.920;12.050;2023-02-20T03:11:04;99343.09;;;13.07;61.86
13124;BME280;6627;50.920;12.050;2023-02-20T03:13:43;99442.16;;;14.61;59.07
13124;BME280;6627;50.920;12.050;2023-02-20T03:16:40;99249.06;;;12.51;61.43
13124;BME280;6627;50.920;12.050;2023-02-20T03:19:12;99393.84;;;13.80;60.58
13124;BME280;6627;50.920;12.050;2023-02-20T03:21:43;99258.09;;;12.87;60.78
13124;BME280;6627;50.920;12.050;2023-02-20T03:24:18;99387.91;;;13.78;61.15
13124;BME280;6627;50.920;12.050;2023-02-20T03:26:47;99276.44;;;12.96;60.92
13124;BME280;6627;50.920;12.050;2023-02-20T03:29:19;99342.72;;;13.27;61.96
13124;BME280;6627;50.920;12.050;2023-02-20T03:31:55;99306.63;;;13.35;60.21
13124;BME280;6627;50.920;12.050;2023-02-20T03:34:43;99263.84;;;12.58;61.86
13124;BME280;6627;50.920;12.050;2023-02-20T03:37:34;99384.94;;;13.88;60.87
13124;BME280;6627;50.920;12.050;2023-02-20T03:40:21;99314.59;;;12.91;62.03
13124;BME280;6627;50.920;12.050;2023-02-20T03:43:14;99382.25;;;14.11;59.27
13124;BME280;6627;50.920;12.050;2023-02-20T03:45:52;99366.69;;;13.53;60.82
13124;BME280;6627;50.920;12.050;2023-02-20T03:48:32;99452.56;;;14.59;59.13
13124;BME280;6627;50.920;12.050;2023-02-20T03:51:02;99351.94;;;13.54;60.26
13124;BME280;6627;50.920;12.050;2023-02-20T03:53:40;99408.72;;;13.97;60.06
13124;BME280;6627;50.920;12.050;2023-02-20T03:56:14;99393.03;;;13.80;59.83
13124;BME280;6627;50.920;12.050;2023-02-20T03:58:48;99364.88;;;13.34;61.42
13124;BME280;6627;50.920;12.050;2023-02-20T04:01:22;99391.16;;;14.03;59.60
13124;BME280;6627;50.920;12.050;2023-02-20T04:03:55;99421.09;;;14.53;58.03
13124;BME280;6627;50.920;12.050;2023-02-20T04:06:29;99347.91;;;14.01;58.01
13124;BME280;6627;50.920;12.050;2023-02-20T04:09:02;99288.47;;;13.45;59.15
13124;BME280;6627;50.920;12.050;2023-02-20T04:11:37;99359.31;;;13.89;58.96
13124;BME280;6627;50.920;12.050;2023-02-20T04:14:07;99347.94;;;13.87;58.52
13124;BME280;6627;50.920;12.050;2023-02-20T04:16:42;99284.50;;;13.28;59.48
13124;BME280;6627;50.920;12.050;2023-02-20T04:19:11;99346.22;;;13.92;58.58
13124;BME280;6627;50.920;12.050;2023-02-20T04:21:44;99280.47;;;12.84;61.19
13124;BME280;6627;50.920;12.050;2023-02-20T04:24:20;99387.63;;;13.66;61.32
13124;BME280;6627;50.920;12.050;2023-02-20T04:26:50;99369.25;;;13.72;60.46
13124;BME280;6627;50.920;12.050;2023-02-20T04:29:18;99379.41;;;14.16;58.90
13124;BME280;6627;50.920;12.050;2023-02-20T04:31:46;99329.34;;;13.67;59.10
13124;BME280;6627;50.920;12.050;2023-02-20T04:34:13;99301.81;;;13.05;60.47
13124;BME280;6627;50.920;12.050;2023-02-20T04:36:40;99281.06;;;12.54;61.79
13124;BME280;6627;50.920;12.050;2023-02-20T04:39:08;99308.03;;;12.92;60.98
13124;BME280;6627;50.920;12.050;2023-02-20T04:41:35;99295.25;;;12.51;62.67
13124;BME280;6627;50.920;12.050;2023-02-20T04:44:04;99304.72;;;12.67;61.87
13124;BME280;6627;50.920;12.050;2023-02-20T04:46:49;99414.25;;;13.69;61.68
13124;BME280;6627;50.920;12.050;2023-02-20T04:49:16;99307.66;;;13.12;60.43
13124;BME280;6627;50.920;12.050;2023-02-20T04:51:43;99295.19;;;12.97;60.50
13124;BME280;6627;50.920;12.050;2023-02-20T04:54:10;99376.28;;;13.86;59.25
13124;BME280;6627;50.920;12.050;2023-02-20T04:56:37;99283.06;;;13.17;58.63
13124;BME280;6627;50.920;12.050;2023-02-20T04:59:05;99335.31;;;13.92;57.29
13124;BME280;6627;50.920;12.050;2023-02-20T05:01:33;99282.16;;;13.35;57.76
13124;BME280;6627;50.920;12.050;2023-02-20T05:04:00;99340.38;;;13.84;57.11
13124;BME280;6627;50.920;12.050;2023-02-20T05:06:27;99235.84;;;12.99;57.71
13124;BME280;6627;50.920;12.050;2023-02-20T05:08:54;99245.78;;;13.18;57.14
13124;BME280;6627;50.920;12.050;2023-02-20T05:11:21;99180.63;;;12.76;57.33
13124;BME280;6627;50.920;12.050;2023-02-20T05:13:49;99173.38;;;12.72;57.42
13124;BME280;6627;50.920;12.050;2023-02-20T05:16:19;99233.69;;;13.37;56.69
13124;BME280;6627;50.920;12.050;2023-02-20T05:18:46;99251.09;;;13.50;56.68
13124;BME280;6627;50.920;12.050;2023-02-20T05:21:14;99138.31;;;12.70;56.73
13124;BME280;6627;50.920;12.050;2023-02-20T05:23:58;99164.09;;;12.73;57.04
13124;BME280;6627;50.920;12.050;2023-02-20T05:26:26;99207.16;;;13.07;56.74
13124;BME280;6627;50.920;12.050;2023-02-20T05:28:53;99176.84;;;13.00;56.63
13124;BME280;6627;50.920;12.050;2023-02-20T05:31:21;99148.00;;;12.76;56.91
13124;BME280;6627;50.920;12.050;2023-02-20T05:33:49;99125.47;;;12.62;57.47
13124;BME280;6627;50.920;12.050;2023-02-20T05:36:16;99173.50;;;13.03;56.81
13124;BME280;6627;50.920;12.050;2023-02-20T05:38:44;99145.69;;;12.70;57.21
13124;BME280;6627;50.920;12.050;2023-02-20T05:41:14;99074.63;;;12.26;56.92
13124;BME280;6627;50.920;12.050;2023-02-20T05:43:42;99111.19;;;12.43;56.81
13124;BME280;6627;50.920;12.050;2023-02-20T05:46:10;99161.44;;;12.95;56.71
13124;BME280;6627;50.920;12.050;2023-02-20T05:48:39;99152.16;;;12.96;56.15
13124;BME280;6627;50.920;12.050;2023-02-20T05:51:17;99122.22;;;12.74;56.33
13124;BME280;6627;50.920;12.050;2023-02-20T05:53:45;99125.19;;;13.00;55.82
13124;BME280;6627;50.920;12.050;2023-02-20T05:56:13;99118.41;;;13.11;55.38
13124;BME280;6627;50.920;12.050;2023-02-20T05:58:41;99183.84;;;13.73;54.52
13124;BME280;6627;50.920;12.050;2023-02-20T06:01:16;98976.13;;;12.57;54.10
13124;BME280;6627;50.920;12.050;2023-02-20T06:03:45;99100.31;;;13.29;54.09
13124;BME280;6627;50.920;12.050;2023-02-20T06:06:15;99081.94;;;13.12;54.66
13124;BME280;6627;50.920;12.050;2023-02-20T06:08:43;99122.63;;;13.40;54.05
13124;BME280;6627;50.920;12.050;2023-02-20T06:11:12;98994.28;;;12.48;54.50
13124;BME280;6627;50.920;12.050;2023-02-20T06:13:40;99025.28;;;12.47;55.08
13124;BME280;6627;50.920;12.050;2023-02-20T06:16:08;98964.31;;;12.03;54.98
13124;BME280;6627;50.920;12.050;2023-02-20T06:18:38;99066.47;;;12.76;54.95
13124;BME280;6627;50.920;12.050;2023-02-20T06:21:08;99111.88;;;13.34;54.19
13124;BME280;6627;50.920;12.050;2023-02-20T06:23:37;99082.94;;;13.38;53.07
13124;BME280;6627;50.920;12.050;2023-02-20T06:26:06;99106.53;;;13.52;53.55
13124;BME280;6627;50.920;12.050;2023-02-20T06:28:33;98978.00;;;12.70;53.70
13124;BME280;6627;50.920;12.050;2023-02-20T06:31:01;99032.19;;;12.89;53.79
13124;BME280;6627;50.920;12.050;2023-02-20T06:33:28;99009.00;;;12.69;54.27
13124;BME280;6627;50.920;12.050;2023-02-20T06:35:56;99071.34;;;13.24;53.38
13124;BME280;6627;50.920;12.050;2023-02-20T06:38:24;99037.06;;;13.01;53.44
13124;BME280;6627;50.920;12.050;2023-02-20T06:40:52;99024.81;;;13.12;52.83
13124;BME280;6627;50.920;12.050;2023-02-20T06:43:20;99112.84;;;13.61;52.71
13124;BME280;6627;50.920;12.050;2023-02-20T06:45:47;98956.16;;;12.75;53.00
13124;BME280;6627;50.920;12.050;2023-02-20T06:48:14;98995.66;;;13.04;52.72
13124;BME280;6627;50.920;12.050;2023-02-20T06:50:43;99086.00;;;13.68;52.48
13124;BME280;6627;50.920;12.050;2023-02-20T06:53:11;99056.53;;;13.70;51.50
13124;BME280;6627;50.920;12.050;2023-02-20T06:55:40;99110.16;;;14.01;51.44
13124;BME280;6627;50.920;12.050;2023-02-20T06:58:07;99012.28;;;13.56;51.39
13124;BME280;6627;50.920;12.050;2023-02-20T07:00:34;98992.66;;;13.36;52.04
13124;BME280;6627;50.920;12.050;2023-02-20T07:03:01;99028.47;;;13.61;52.13
13124;BME280;6627;50.920;12.050;2023-02-20T07:05:28;99025.25;;;13.50;52.05
13124;BME280;6627;50.920;12.050;2023-02-20T07:07:55;99085.06;;;14.12;51.45
13124;BME280;6627;50.920;12.050;2023-02-20T07:10:22;98986.59;;;13.40;52.64
13124;BME280;6627;50.920;12.050;2023-02-20T07:12:51;98939.94;;;12.93;52.79
13124;BME280;6627;50.920;12.050;2023-02-20T07:15:18;99024.50;;;13.67;51.87
13124;BME280;6627;50.920;12.050;2023-02-20T07:17:46;99148.69;;;14.65;51.11
13124;BME280;6627;50.920;12.050;2023-02-20T07:20:14;99021.41;;;14.00;50.57
13124;BME280;6627;50.920;12.050;2023-02-20T07:22:49;98927.06;;;13.07;51.86
13124;BME280;6627;50.920;12.050;2023-02-20T07:25:17;98976.69;;;13.44;51.82
13124;BME280;6627;50.920;12.050;2023-02-20T07:27:44;99046.09;;;14.12;50.95
13124;BME280;6627;50.920;12.050;2023-02-20T07:30:13;98974.44;;;13.46;51.51
13124;BME280;6627;50.920;12.050;2023-02-20T07:32:40;99028.41;;;13.83;51.53
13124;BME280;6627;50.920;12.050;2023-02-20T07:35:08;98980.13;;;13.67;50.95
13124;BME280;6627;50.920;12.050;2023-02-20T07:37:35;99008.69;;;13.78;51.05
13124;BME280;6627;50.920;12.050;2023-02-20T07:40:03;98982.53;;;13.59;50.71
13124;BME280;6627;50.920;12.050;2023-02-20T07:42:30;98860.50;;;13.04;50.45
13124;BME280;6627;50.920;12.050;2023-02-20T07:44:59;99043.38;;;14.03;50.84
13124;BME280;6627;50.920;12.050;2023-02-20T07:47:28;99017.78;;;14.22;49.67
13124;BME280;6627;50.920;12.050;2023-02-20T07:49:56;98986.94;;;13.86;50.43
13124;BME280;6627;50.920;12.050;2023-02-20T07:52:23;98932.88;;;13.54;50.84
13124;BME280;6627;50.920;12.050;2023-02-20T07:54:50;99139.59;;;15.13;49.32
13124;BME280;6627;50.920;12.050;2023-02-20T07:57:17;98930.84;;;13.68;50.48
13124;BME280;6627;50.920;12.050;2023-02-20T07:59:45;98972.91;;;14.19;49.54
13124;BME280;6627;50.920;12.050;2023-02-20T08:02:12;98991.03;;;14.32;49.31
13124;BME280;6627;50.920;12.050;2023-02-20T08:04:41;98969.97;;;13.98;50.21
13124;BME280;6627;50.920;12.050;2023-02-20T08:07:08;99015.22;;;14.43;49.59
13124;BME280;6627;50.920;12.050;2023-02-20T08:09:35;98924.97;;;13.92;50.16
13124;BME280;6627;50.920;12.050;2023-02-20T08:12:02;99013.16;;;14.39;50.31
13124;BME280;6627;50.920;12.050;2023-02-20T08:14:30;98868.09;;;13.73;50.23
13124;BME280;6627;50.920;12.050;2023-02-20T08:16:57;99059.38;;;14.97;49.82
13124;BME280;6627;50.920;12.050;2023-02-20T08:19:24;99049.53;;;15.30;48.48
13124;BME280;6627;50.920;12.050;2023-02-20T08:21:53;99064.50;;;15.24;49.21
13124;BME280;6627;50.920;12.050;2023-02-20T08:24:20;98956.59;;;14.71;48.69
13124;BME280;6627;50.920;12.050;2023-02-20T08:26:48;98928.72;;;14.57;48.71
13124;BME280;6627;50.920;12.050;2023-02-20T08:29:16;98954.19;;;14.61;49.65
13124;BME280;6627;50.920;12.050;2023-02-20T08:31:43;98951.44;;;14.70;49.03
13124;BME280;6627;50.920;12.050;2023-02-20T08:34:11;98937.78;;;14.78;48.72
13124;BME280;6627;50.920;12.050;2023-02-20T08:36:40;98931.25;;;14.71;49.05
13124;BME280;6627;50.920;12.050;2023-02-20T08:39:08;98951.56;;;14.91;48.66
13124;BME280;6627;50.920;12.050;2023-02-20T08:41:41;98971.44;;;15.00;48.76
13124;BME280;6627;50.920;12.050;2023-02-20T08:44:10;98872.56;;;14.47;48.59
13124;BME280;6627;50.920;12.050;2023-02-20T08:46:45;98941.78;;;14.98;48.46
13124;BME280;6627;50.920;12.050;2023-02-20T08:49:12;98974.50;;;15.07;48.47
13124;BME280;6627;50.920;12.050;2023-02-20T08:51:40;99012.78;;;15.36;48.35
13124;BME280;6627;50.920;12.050;2023-02-20T08:54:08;98927.22;;;14.85;48.56
13124;BME280;6627;50.920;12.050;2023-02-20T08:56:35;99022.34;;;15.51;48.13
13124;BME280;6627;50.920;12.050;2023-02-20T08:59:02;98889.03;;;14.85;48.04
13124;BME280;6627;50.920;12.050;2023-02-20T09:01:29;99042.66;;;15.80;47.86
13124;BME280;6627;50.920;12.050;2023-02-20T09:03:57;98949.88;;;15.24;48.04
13124;BME280;6627;50.920;12.050;2023-02-20T09:06:24;98863.72;;;14.76;47.91
13124;BME280;6627;50.920;12.050;2023-02-20T09:08:53;99029.31;;;15.87;47.73
13124;BME280;6627;50.920;12.050;2023-02-20T09:11:22;99082.25;;;16.33;47.35
13124;BME280;6627;50.920;12.050;2023-02-20T09:13:49;98898.56;;;15.09;47.96
13124;BME280;6627;50.920;12.050;2023-02-20T09:16:20;98930.22;;;15.39;47.36
13124;BME280;6627;50.920;12.050;2023-02-20T09:18:48;98953.13;;;15.56;47.08
13124;BME280;6627;50.920;12.050;2023-02-20T09:21:18;98957.59;;;15.60;47.03
13124;BME280;6627;50.920;12.050;2023-02-20T09:23:45;99022.91;;;16.12;46.75
13124;BME280;6627;50.920;12.050;2023-02-20T09:26:13;98947.81;;;15.68;47.07
13124;BME280;6627;50.920;12.050;2023-02-20T09:28:41;98911.88;;;15.49;46.72
13124;BME280;6627;50.920;12.050;2023-02-20T09:31:08;98993.75;;;15.96;46.61
13124;BME280;6627;50.920;12.050;2023-02-20T09:33:36;98978.66;;;15.98;46.22
13124;BME280;6627;50.920;12.050;2023-02-20T09:36:04;98980.38;;;16.03;45.91
13124;BME280;6627;50.920;12.050;2023-02-20T09:38:32;98931.41;;;15.68;46.23
13124;BME280;6627;50.920;12.050;2023-02-20T09:41:00;98919.31;;;15.78;45.89
13124;BME280;6627;50.920;12.050;2023-02-20T09:43:48;98944.97;;;15.85;46.11
13124;BME280;6627;50.920;12.050;2023-02-20T09:46:19;98976.13;;;16.14;45.85
13124;BME280;6627;50.920;12.050;2023-02-20T09:49:02;98897.41;;;15.57;46.68
13124;BME280;6627;50.920;12.050;2023-02-20T09:51:35;98922.03;;;15.78;46.34
13124;BME280;6627;50.920;12.050;2023-02-20T09:54:07;98944.34;;;15.80;46.75
13124;BME280;6627;50.920;12.050;2023-02-20T09:56:41;98968.22;;;15.92;46.84
13124;BME280;6627;50.920;12.050;2023-02-20T09:59:15;98960.38;;;16.11;46.04
13124;BME280;6627;50.920;12.050;2023-02-20T10:01:52;98961.59;;;16.22;45.98
13124;BME280;6627;50.920;12.050;2023-02-20T10:04:25;98914.59;;;15.87;46.32
13124;BME280;6627;50.920;12.050;2023-02-20T10:07:03;98913.72;;;15.74;46.62
13124;BME280;6627;50.920;12.050;2023-02-20T10:09:36;98932.38;;;15.93;46.47
13124;BME280;6627;50.920;12.050;2023-02-20T10:12:15;99016.34;;;16.34;46.46
13124;BME280;6627;50.920;12.050;2023-02-20T10:15:07;98950.53;;;16.19;45.67
13124;BME280;6627;50.920;12.050;2023-02-20T10:17:49;98895.72;;;15.73;46.03
13124;BME280;6627;50.920;12.050;2023-02-20T10:20:30;98903.72;;;15.78;46.26
13124;BME280;6627;50.920;12.050;2023-02-20T10:23:13;98965.53;;;16.12;46.18
13124;BME280;6627;50.920;12.050;2023-02-20T10:25:50;98926.00;;;16.10;45.41
13124;BME280;6627;50.920;12.050;2023-02-20T10:28:20;99081.16;;;17.05;45.23
13124;BME280;6627;50.920;12.050;2023-02-20T10:30:57;99033.78;;;16.93;44.60
13124;BME280;6627;50.920;12.050;2023-02-20T10:33:33;98948.53;;;16.49;44.79
13124;BME280;6627;50.920;12.050;2023-02-20T10:36:12;98991.22;;;16.83;44.51
13124;BME280;6627;50.920;12.050;2023-02-20T10:38:49;99022.66;;;17.10;44.19
13124;BME280;6627;50.920;12.050;2023-02-20T10:41:26;99044.41;;;17.39;44.32
13124;BME280;6627;50.920;12.050;2023-02-20T10:44:00;98850.28;;;16.31;44.06
13124;BME280;6627;50.920;12.050;2023-02-20T10:46:34;98786.91;;;16.17;43.77
13124;BME280;6627;50.920;12.050;2023-02-20T10:49:08;98890.03;;;16.62;44.06
13124;BME280;6627;50.920;12.050;2023-02-20T10:51:43;99008.75;;;17.60;43.05
13124;BME280;6627;50.920;12.050;2023-02-20T10:54:16;98960.13;;;17.33;43.03
13124;BME280;6627;50.920;12.050;2023-02-20T10:56:53;98915.03;;;17.06;43.19
13124;BME280;6627;50.920;12.050;2023-02-20T10:59:32;98863.81;;;17.06;42.45
13124;BME280;6627;50.920;12.050;2023-02-20T11:02:05;98938.53;;;17.44;42.72
13124;BME280;6627;50.920;12.050;2023-02-20T11:04:40;98937.41;;;17.57;42.50
13124;BME280;6627;50.920;12.050;2023-02-20T11:07:14;98812.50;;;17.03;42.35
13124;BME280;6627;50.920;12.050;2023-02-20T11:09:43;98911.66;;;17.58;42.21
13124;BME280;6627;50.920;12.050;2023-02-20T11:12:23;98892.78;;;17.56;41.84
13124;BME280;6627;50.920;12.050;2023-02-20T11:14:55;98957.59;;;18.26;40.88
13124;BME280;6627;50.920;12.050;2023-02-20T11:17:26;98879.78;;;17.90;40.97
13124;BME280;6627;50.920;12.050;2023-02-20T11:19:57;98909.53;;;18.16;41.05
13124;BME280;6627;50.920;12.050;2023-02-20T11:22:42;98982.41;;;18.70;40.62
13124;BME280;6627;50.920;12.050;2023-02-20T11:25:18;98882.69;;;18.09;40.73
13124;BME280;6627;50.920;12.050;2023-02-20T11:27:49;98966.75;;;18.70;40.24
13124;BME280;6627;50.920;12.050;2023-02-20T11:30:28;98846.94;;;18.06;40.45
13124;BME280;6627;50.920;12.050;2023-02-20T11:33:04;98973.63;;;18.92;39.72
13124;BME280;6627;50.920;12.050;2023-02-20T11:35:37;98951.75;;;18.96;39.57
13124;BME280;6627;50.920;12.050;2023-02-20T11:38:26;98824.97;;;18.18;40.02
13124;BME280;6627;50.920;12.050;2023-02-20T11:41:21;98794.88;;;18.06;39.86
13124;BME280;6627;50.920;12.050;2023-02-20T11:44:15;98769.78;;;18.04;39.79
13124;BME280;6627;50.920;12.050;2023-02-20T11:46:43;98734.00;;;17.84;40.25
13124;BME280;6627;50.920;12.050;2023-02-20T11:49:25;98803.94;;;18.22;40.12
13124;BME280;6627;50.920;12.050;2023-02-20T11:52:08;98832.59;;;18.53;39.92
13124;BME280;6627;50.920;12.050;2023-02-20T11:54:36;98890.91;;;18.94;39.55
13124;BME280;6627;50.920;12.050;2023-02-20T11:57:10;98866.53;;;18.76;39.51
13124;BME280;6627;50.920;12.050;2023-02-20T11:59:48;98908.00;;;19.03;39.74
13124;BME280;6627;50.920;12.050;2023-02-20T12:02:27;98755.16;;;18.44;38.98
13124;BME280;6627;50.920;12.050;2023-02-20T12:05:10;98632.47;;;17.65;39.84
13124;BME280;6627;50.920;12.050;2023-02-20T12:07:41;98644.44;;;17.73;39.67
13124;BME280;6627;50.920;12.050;2023-02-20T12:10:41;98751.81;;;18.34;39.57
13124;BME280;6627;50.920;12.050;2023-02-20T12:13:13;98719.88;;;18.42;38.87
13124;BME280;6627;50.920;12.050;2023-02-20T12:15:43;98727.28;;;18.26;39.35
13124;BME280;6627;50.920;12.050;2023-02-20T12:18:35;98764.66;;;18.62;38.74
13124;BME280;6627;50.920;12.050;2023-02-20T12:21:24;98684.56;;;18.09;39.07
13124;BME280;6627;50.920;12.050;2023-02-20T12:24:09;98762.00;;;18.81;38.64
13124;BME280;6627;50.920;12.050;2023-02-20T12:26:50;98846.75;;;19.30;38.34
13124;BME280;6627;50.920;12.050;2023-02-20T12:29:33;98712.75;;;18.69;38.61
13124;BME280;6627;50.920;12.050;2023-02-20T12:32:30;98694.84;;;18.59;39.11
13124;BME280;6627;50.920;12.050;2023-02-20T12:35:28;98726.50;;;18.88;38.71
13124;BME280;6627;50.920;12.050;2023-02-20T12:38:12;98561.50;;;18.04;38.76
13124;BME280;6627;50.920;12.050;2023-02-20T12:41:07;98723.78;;;18.88;38.85
13124;BME280;6627;50.920;12.050;2023-02-20T12:43:45;98820.56;;;19.87;37.69
13124;BME280;6627;50.920;12.050;2023-02-20T12:46:20;98791.19;;;19.72;37.89
13124;BME280;6627;50.920;12.050;2023-02-20T12:49:20;98666.53;;;19.06;38.40
13124;BME280;6627;50.920;12.050;2023-02-20T12:51:52;98627.31;;;18.71;38.76
13124;BME280;6627;50.920;12.050;2023-02-20T12:54:36;98617.81;;;18.68;38.70
13124;BME280;6627;50.920;12.050;2023-02-20T12:57:14;98694.63;;;19.35;38.09
13124;BME280;6627;50.920;12.050;2023-02-20T12:59:54;98655.63;;;19.10;38.23
13124;BME280;6627;50.920;12.050;2023-02-20T13:02:32;98615.03;;;19.00;38.29
13124;BME280;6627;50.920;12.050;2023-02-20T13:05:02;98599.00;;;19.02;38.30
13124;BME280;6627;50.920;12.050;2023-02-20T13:07:38;98726.69;;;19.66;38.38
13124;BME280;6627;50.920;12.050;2023-02-20T13:10:15;98672.69;;;19.38;38.37
13124;BME280;6627;50.920;12.050;2023-02-20T13:12:43;98618.31;;;18.89;38.89
13124;BME280;6627;50.920;12.050;2023-02-20T13:15:26;98626.16;;;19.07;38.95
13124;BME280;6627;50.920;12.050;2023-02-20T13:17:58;98581.94;;;18.73;39.64
13124;BME280;6627;50.920;12.050;2023-02-20T13:20:35;98719.41;;;19.58;39.17
13124;BME280;6627;50.920;12.050;2023-02-20T13:23:26;98581.56;;;18.59;39.98
13124;BME280;6627;50.920;12.050;2023-02-20T13:25:56;98657.50;;;19.25;39.56
13124;BME280;6627;50.920;12.050;2023-02-20T13:28:37;98595.06;;;19.03;39.30
13124;BME280;6627;50.920;12.050;2023-02-20T13:31:22;98673.34;;;19.32;39.52
13124;BME280;6627;50.920;12.050;2023-02-20T13:34:31;98590.84;;;18.86;40.05
13124;BME280;6627;50.920;12.050;2023-02-20T13:36:59;98572.63;;;18.78;39.81
13124;BME280;6627;50.920;12.050;2023-02-20T13:39:41;98621.09;;;19.09;39.83